Time;durP1;ratioP1;P1;durP2;ratioP2;P2;SDS_P1;SDS_P2;PMS_P1;PMS_P2;Temp;Humidity;BMP_temperature;BMP_pressure;BME280_temperature;BME280_humidity;BME280_pressure;Samples;Min_cycle;Max_cycle;Signal;HPM_P1;HPM_P2
2022/02/23 00:00:50;;;;;;;12.70;9.97;;;;;;;;;;4449761;32;20489;-58
2022/02/23 00:03:16;;;;;;;16.63;10.47;;;;;;;;;;4440269;32;20234;-57
2022/02/23 00:05:41;;;;;;;13.63;10.70;;;;;;;;;;4449009;32;20288;-57
2022/02/23 00:08:07;;;;;;;16.70;9.80;;;;;;;;;;4448873;32;20372;-58
2022/02/23 00:10:32;;;;;;;15.77;9.77;;;;;;;;;;4449075;32;20581;-57
2022/02/23 00:12:58;;;;;;;15.03;9.23;;;;;;;;;;4448975;32;20542;-57
2022/02/23 00:15:24;;;;;;;16.13;10.83;;;;;;;;;;4449088;32;20534;-57
2022/02/23 00:17:49;;;;;;;14.87;10.23;;;;;;;;;;4449089;32;20292;-57
2022/02/23 00:20:16;;;;;;;11.83;9.87;;;;;;;;;;4448477;32;20252;-57
2022/02/23 00:22:41;;;;;;;13.57;8.67;;;;;;;;;;4448617;32;20576;-59
2022/02/23 00:25:08;;;;;;;13.83;8.80;;;;;;;;;;4448744;32;20221;-57
2022/02/23 00:27:34;;;;;;;15.43;9.00;;;;;;;;;;4448916;32;20373;-57
2022/02/23 00:30:00;;;;;;;13.50;9.53;;;;;;;;;;4449128;32;20212;-57
2022/02/23 00:32:25;;;;;;;14.97;10.27;;;;;;;;;;4446541;32;20205;-57
2022/02/23 00:34:51;;;;;;;16.00;10.77;;;;;;;;;;4442469;32;20756;-57
2022/02/23 00:37:16;;;;;;;17.53;11.23;;;;;;;;;;4445947;32;20207;-58
2022/02/23 00:39:42;;;;;;;15.33;10.10;;;;;;;;;;4448854;32;20216;-57
2022/02/23 00:42:08;;;;;;;14.77;10.00;;;;;;;;;;4448457;32;20229;-57
2022/02/23 00:44:33;;;;;;;15.17;10.80;;;;;;;;;;4448659;32;20337;-57
2022/02/23 00:46:59;;;;;;;13.47;10.83;;;;;;;;;;4448742;32;20247;-58
2022/02/23 00:49:26;;;;;;;16.57;11.13;;;;;;;;;;4448253;32;20193;-56
2022/02/23 00:51:52;;;;;;;13.70;10.73;;;;;;;;;;4448621;32;20268;-57
2022/02/23 00:54:18;;;;;;;15.00;11.07;;;;;;;;;;4447989;32;20659;-58
2022/02/23 00:56:45;;;;;;;13.60;9.90;;;;;;;;;;4448546;32;20219;-58
2022/02/23 00:59:10;;;;;;;14.40;9.57;;;;;;;;;;4448311;32;20267;-57
2022/02/23 01:01:36;;;;;;;13.70;9.17;;;;;;;;;;4439542;32;20259;-57
2022/02/23 01:04:02;;;;;;;9.80;8.40;;;;;;;;;;4448368;32;20458;-57
2022/02/23 01:06:27;;;;;;;16.03;10.13;;;;;;;;;;4421448;32;20263;-57
2022/02/23 01:08:53;;;;;;;12.43;10.07;;;;;;;;;;4442216;32;20361;-57
2022/02/23 01:11:20;;;;;;;15.67;10.13;;;;;;;;;;4436060;32;20221;-57
2022/02/23 01:13:49;;;;;;;12.93;8.97;;;;;;;;;;4448072;32;20228;-57
2022/02/23 01:16:15;;;;;;;12.73;8.77;;;;;;;;;;4448018;32;20636;-57
2022/02/23 01:18:41;;;;;;;16.20;8.97;;;;;;;;;;4448189;32;20398;-57
2022/02/23 01:21:07;;;;;;;10.53;8.40;;;;;;;;;;4445301;32;20224;-56
2022/02/23 01:23:32;;;;;;;10.00;8.80;;;;;;;;;;4447739;32;20236;-57
2022/02/23 01:25:58;;;;;;;9.67;8.27;;;;;;;;;;4448248;32;20317;-57
2022/02/23 01:28:23;;;;;;;10.83;8.87;;;;;;;;;;4447649;32;20201;-57
2022/02/23 01:30:49;;;;;;;10.33;8.87;;;;;;;;;;4448260;32;20216;-57
2022/02/23 01:33:14;;;;;;;8.80;7.90;;;;;;;;;;4447771;32;20205;-57
2022/02/23 01:35:40;;;;;;;11.67;9.20;;;;;;;;;;4448089;32;20228;-57
2022/02/23 01:38:06;;;;;;;13.67;8.90;;;;;;;;;;4449008;32;20260;-57
2022/02/23 01:40:31;;;;;;;13.73;9.63;;;;;;;;;;4447967;32;20248;-57
2022/02/23 01:42:57;;;;;;;10.90;7.97;;;;;;;;;;4447544;32;20212;-57
2022/02/23 01:45:22;;;;;;;15.70;9.53;;;;;;;;;;4438671;32;20303;-57
2022/02/23 01:47:48;;;;;;;14.20;11.33;;;;;;;;;;4440743;32;20299;-57
2022/02/23 01:50:15;;;;;;;19.03;11.80;;;;;;;;;;4447574;32;20304;-57
2022/02/23 01:52:41;;;;;;;17.27;12.30;;;;;;;;;;4447473;32;20341;-58
2022/02/23 01:55:06;;;;;;;17.37;11.67;;;;;;;;;;4448142;32;20259;-57
2022/02/23 01:57:32;;;;;;;16.50;10.27;;;;;;;;;;4447591;32;20289;-57
2022/02/23 01:59:58;;;;;;;15.60;10.33;;;;;;;;;;4447513;32;20333;-56
2022/02/23 02:02:26;;;;;;;14.73;10.73;;;;;;;;;;4420745;32;20244;-56
2022/02/23 02:04:52;;;;;;;15.47;11.13;;;;;;;;;;4447647;32;20330;-57
2022/02/23 02:07:18;;;;;;;12.90;10.13;;;;;;;;;;4445678;32;20271;-57
2022/02/23 02:09:43;;;;;;;14.40;9.70;;;;;;;;;;4447546;32;20213;-57
2022/02/23 02:12:09;;;;;;;11.00;8.63;;;;;;;;;;4447208;32;20557;-57
2022/02/23 02:14:34;;;;;;;12.83;8.53;;;;;;;;;;4444461;32;20307;-57
2022/02/23 02:17:00;;;;;;;9.43;8.43;;;;;;;;;;4446991;32;20435;-58
2022/02/23 02:19:25;;;;;;;13.20;8.80;;;;;;;;;;4447232;32;20295;-58
2022/02/23 02:22:00;;;;;;;14.53;9.03;;;;;;;;;;4445939;32;20312;-57
2022/02/23 02:24:28;;;;;;;13.63;8.90;;;;;;;;;;4443554;32;20302;-57
2022/02/23 02:26:55;;;;;;;13.93;9.40;;;;;;;;;;4446074;32;20264;-57
2022/02/23 02:29:21;;;;;;;15.60;10.30;;;;;;;;;;4447361;32;20209;-57
2022/02/23 02:31:47;;;;;;;15.90;10.30;;;;;;;;;;4447176;32;20655;-57
2022/02/23 02:34:13;;;;;;;23.27;11.60;;;;;;;;;;4447268;32;20648;-57
2022/02/23 02:36:39;;;;;;;19.17;12.40;;;;;;;;;;4447373;32;20307;-57
2022/02/23 02:39:06;;;;;;;12.93;10.37;;;;;;;;;;4447545;32;20715;-57
2022/02/23 02:41:33;;;;;;;13.73;10.43;;;;;;;;;;4447401;32;20244;-57
2022/02/23 02:43:59;;;;;;;21.73;12.07;;;;;;;;;;4447432;32;20233;-58
2022/02/23 02:46:24;;;;;;;16.57;11.90;;;;;;;;;;4447028;32;20232;-57
2022/02/23 02:48:50;;;;;;;14.80;10.97;;;;;;;;;;4447127;32;20220;-56
2022/02/23 02:51:16;;;;;;;18.03;12.17;;;;;;;;;;4446792;32;20320;-57
2022/02/23 02:53:41;;;;;;;16.93;11.20;;;;;;;;;;4446952;32;20263;-56
2022/02/23 02:56:07;;;;;;;13.77;10.43;;;;;;;;;;4446917;32;20295;-57
2022/02/23 02:58:32;;;;;;;12.53;9.53;;;;;;;;;;4445269;32;20324;-57
2022/02/23 03:00:57;;;;;;;13.50;9.83;;;;;;;;;;4447050;32;20295;-57
2022/02/23 03:03:23;;;;;;;17.23;12.90;;;;;;;;;;4446588;32;20283;-57
2022/02/23 03:05:49;;;;;;;17.07;12.10;;;;;;;;;;4446818;32;20675;-57
2022/02/23 03:08:16;;;;;;;19.33;12.00;;;;;;;;;;4446511;32;20224;-57
2022/02/23 03:10:43;;;;;;;19.07;11.90;;;;;;;;;;4446945;32;20322;-57
2022/02/23 03:13:10;;;;;;;15.47;11.37;;;;;;;;;;4446262;32;20614;-57
2022/02/23 03:15:36;;;;;;;19.97;13.20;;;;;;;;;;4446935;32;20213;-57
2022/02/23 03:18:02;;;;;;;21.33;12.70;;;;;;;;;;4448883;32;20643;-56
2022/02/23 03:20:28;;;;;;;18.43;11.90;;;;;;;;;;4449427;32;20327;-56
2022/02/23 03:22:53;;;;;;;16.07;10.00;;;;;;;;;;4449832;32;20329;-57
2022/02/23 03:25:19;;;;;;;19.27;10.67;;;;;;;;;;4449704;32;20243;-57
2022/02/23 03:27:46;;;;;;;18.40;9.90;;;;;;;;;;4437621;32;20305;-57
2022/02/23 03:30:12;;;;;;;23.23;11.70;;;;;;;;;;4447770;32;20342;-56
2022/02/23 03:32:38;;;;;;;20.13;12.87;;;;;;;;;;4442723;32;20322;-57
2022/02/23 03:35:05;;;;;;;23.57;11.70;;;;;;;;;;4449926;32;20250;-56
2022/02/23 03:37:31;;;;;;;25.37;13.90;;;;;;;;;;4449642;32;20324;-56
2022/02/23 03:39:56;;;;;;;20.07;12.93;;;;;;;;;;4436413;32;20228;-57
2022/02/23 03:42:22;;;;;;;23.67;12.73;;;;;;;;;;4446540;32;20450;-56
2022/02/23 03:44:48;;;;;;;24.93;14.13;;;;;;;;;;4449718;32;20588;-57
2022/02/23 03:47:13;;;;;;;17.97;11.37;;;;;;;;;;4447948;32;20234;-57
2022/02/23 03:49:39;;;;;;;12.60;9.63;;;;;;;;;;4449168;32;20579;-59
2022/02/23 03:52:05;;;;;;;12.37;9.13;;;;;;;;;;4449430;32;20204;-56
2022/02/23 03:54:30;;;;;;;12.60;9.67;;;;;;;;;;4449654;32;20307;-57
2022/02/23 03:56:56;;;;;;;23.17;15.57;;;;;;;;;;4449546;32;20228;-57
2022/02/23 03:59:22;;;;;;;21.47;12.43;;;;;;;;;;4449179;32;20318;-57
2022/02/23 04:01:48;;;;;;;18.60;11.80;;;;;;;;;;4449262;32;20315;-58
2022/02/23 04:04:14;;;;;;;17.57;11.67;;;;;;;;;;4448986;32;20379;-57
2022/02/23 04:06:40;;;;;;;19.97;11.73;;;;;;;;;;4449389;32;20225;-56
2022/02/23 04:09:08;;;;;;;21.33;12.80;;;;;;;;;;4449161;32;20275;-57
2022/02/23 04:11:34;;;;;;;19.57;13.00;;;;;;;;;;4449056;32;20251;-56
2022/02/23 04:14:01;;;;;;;18.77;13.53;;;;;;;;;;4435401;32;20263;-58
2022/02/23 04:16:27;;;;;;;17.17;11.23;;;;;;;;;;4447553;32;20642;-58
2022/02/23 04:18:53;;;;;;;17.10;12.23;;;;;;;;;;4449156;32;20284;-58
2022/02/23 04:21:19;;;;;;;14.17;9.30;;;;;;;;;;4441009;32;20298;-58
2022/02/23 04:23:45;;;;;;;15.90;10.37;;;;;;;;;;4447072;32;20255;-57
2022/02/23 04:26:12;;;;;;;9.23;7.63;;;;;;;;;;4433725;32;20304;-57
2022/02/23 04:28:38;;;;;;;16.30;9.97;;;;;;;;;;4445692;32;20244;-57
2022/02/23 04:31:04;;;;;;;16.20;9.60;;;;;;;;;;4437149;32;20308;-57
2022/02/23 04:33:30;;;;;;;13.77;10.67;;;;;;;;;;4448891;32;20224;-58
2022/02/23 04:35:56;;;;;;;20.30;10.27;;;;;;;;;;4448711;32;20609;-57
2022/02/23 04:38:22;;;;;;;15.00;9.27;;;;;;;;;;4448495;32;20350;-57
2022/02/23 04:40:47;;;;;;;13.67;10.50;;;;;;;;;;4449173;32;20232;-57
2022/02/23 04:43:14;;;;;;;17.23;10.50;;;;;;;;;;4446964;32;20642;-57
2022/02/23 04:45:40;;;;;;;18.10;11.30;;;;;;;;;;4447572;32;20669;-58
2022/02/23 04:48:06;;;;;;;15.23;11.50;;;;;;;;;;4448431;32;20236;-58
2022/02/23 04:50:32;;;;;;;11.93;8.97;;;;;;;;;;4448406;32;20526;-57
2022/02/23 04:52:58;;;;;;;11.37;8.97;;;;;;;;;;4447338;32;20257;-56
2022/02/23 04:55:24;;;;;;;17.37;11.33;;;;;;;;;;4448688;32;20548;-57
2022/02/23 04:57:49;;;;;;;18.43;13.10;;;;;;;;;;4448670;32;20201;-57
2022/02/23 05:00:15;;;;;;;18.40;12.10;;;;;;;;;;4448369;32;20270;-57
2022/02/23 05:02:41;;;;;;;15.50;11.43;;;;;;;;;;4448423;32;20415;-57
2022/02/23 05:05:07;;;;;;;16.60;11.63;;;;;;;;;;4448223;32;20281;-58
2022/02/23 05:07:36;;;;;;;16.77;11.73;;;;;;;;;;4426436;32;20289;-57
2022/02/23 05:10:03;;;;;;;21.13;12.67;;;;;;;;;;4448254;32;20571;-57
2022/02/23 05:12:28;;;;;;;17.63;12.50;;;;;;;;;;4435584;32;20541;-56
2022/02/23 05:14:54;;;;;;;15.37;10.47;;;;;;;;;;4448279;32;20268;-56
2022/02/23 05:17:19;;;;;;;18.13;12.77;;;;;;;;;;4448065;32;20506;-57
2022/02/23 05:19:45;;;;;;;22.03;12.87;;;;;;;;;;4448004;32;20731;-57
2022/02/23 05:22:11;;;;;;;16.83;8.93;;;;;;;;;;4447965;32;20271;-57
2022/02/23 05:24:37;;;;;;;20.73;8.23;;;;;;;;;;4448091;32;20310;-57
2022/02/23 05:27:03;;;;;;;10.40;7.53;;;;;;;;;;4448485;32;20545;-58
2022/02/23 05:29:31;;;;;;;11.37;8.20;;;;;;;;;;4446517;32;20644;-57
2022/02/23 05:31:56;;;;;;;12.63;7.50;;;;;;;;;;4434717;32;20240;-57
2022/02/23 05:34:22;;;;;;;8.50;7.07;;;;;;;;;;4447163;32;20431;-57
2022/02/23 05:36:48;;;;;;;11.13;8.90;;;;;;;;;;4448372;32;20674;-57
2022/02/23 05:39:13;;;;;;;20.80;11.87;;;;;;;;;;4439219;32;20322;-58
2022/02/23 05:41:39;;;;;;;13.77;10.17;;;;;;;;;;4446378;32;20290;-57
2022/02/23 05:44:05;;;;;;;15.87;10.40;;;;;;;;;;4445381;32;20320;-57
2022/02/23 05:46:30;;;;;;;19.53;11.00;;;;;;;;;;4447568;32;20241;-56
2022/02/23 05:48:56;;;;;;;18.17;11.50;;;;;;;;;;4440530;32;20251;-56
2022/02/23 05:51:28;;;;;;;17.83;12.90;;;;;;;;;;4438523;32;20637;-57
2022/02/23 05:53:54;;;;;;;17.57;12.53;;;;;;;;;;4447067;32;20256;-57
2022/02/23 05:56:20;;;;;;;13.30;11.07;;;;;;;;;;4446054;32;20632;-57
2022/02/23 05:58:45;;;;;;;15.33;9.30;;;;;;;;;;4445985;32;20612;-57
2022/02/23 06:01:11;;;;;;;11.80;8.63;;;;;;;;;;4445269;32;20322;-57
2022/02/23 06:03:37;;;;;;;13.07;7.77;;;;;;;;;;4445688;32;20311;-58
2022/02/23 06:06:03;;;;;;;9.97;8.07;;;;;;;;;;4447486;32;20665;-58
2022/02/23 06:08:28;;;;;;;13.33;9.40;;;;;;;;;;4447584;32;20231;-58
2022/02/23 06:10:54;;;;;;;12.33;9.43;;;;;;;;;;4447460;32;20691;-57
2022/02/23 06:13:20;;;;;;;13.43;10.10;;;;;;;;;;4438079;32;20346;-58
2022/02/23 06:15:45;;;;;;;15.07;9.97;;;;;;;;;;4434650;32;20224;-58
2022/02/23 06:18:11;;;;;;;16.13;9.80;;;;;;;;;;4443260;32;20341;-58
2022/02/23 06:20:37;;;;;;;20.33;12.30;;;;;;;;;;4447913;32;20667;-57
2022/02/23 06:23:03;;;;;;;19.40;13.10;;;;;;;;;;4447647;32;20273;-57
2022/02/23 06:25:28;;;;;;;20.57;14.30;;;;;;;;;;4444002;32;20240;-57
2022/02/23 06:27:54;;;;;;;19.70;12.97;;;;;;;;;;4447447;32;20216;-57
2022/02/23 06:30:19;;;;;;;20.63;12.30;;;;;;;;;;4447161;32;20262;-57
2022/02/23 06:32:45;;;;;;;16.50;11.30;;;;;;;;;;4447160;32;20235;-57
2022/02/23 06:35:11;;;;;;;9.70;7.37;;;;;;;;;;4439187;32;20656;-58
2022/02/23 06:37:36;;;;;;;27.23;16.73;;;;;;;;;;4437517;32;20248;-57
2022/02/23 06:40:03;;;;;;;28.73;19.20;;;;;;;;;;4447293;32;20245;-56
2022/02/23 06:42:28;;;;;;;29.10;20.50;;;;;;;;;;4446548;32;20334;-57
2022/02/23 06:44:55;;;;;;;23.53;16.63;;;;;;;;;;4446293;32;20224;-57
2022/02/23 06:47:21;;;;;;;21.97;14.57;;;;;;;;;;4444890;32;20306;-56
2022/02/23 06:49:46;;;;;;;15.57;9.00;;;;;;;;;;4444453;32;20232;-57
2022/02/23 06:52:14;;;;;;;15.50;10.87;;;;;;;;;;4444777;32;20301;-56
2022/02/23 06:54:39;;;;;;;18.60;13.10;;;;;;;;;;4443984;32;20252;-57
2022/02/23 06:57:08;;;;;;;21.73;12.73;;;;;;;;;;4446948;32;20207;-60
2022/02/23 06:59:34;;;;;;;20.97;15.17;;;;;;;;;;4441147;32;20345;-57
2022/02/23 07:02:00;;;;;;;24.23;16.37;;;;;;;;;;4445607;32;20220;-57
2022/02/23 07:04:26;;;;;;;19.27;14.27;;;;;;;;;;4446696;32;20291;-57
2022/02/23 07:06:51;;;;;;;21.90;14.83;;;;;;;;;;4447147;32;20272;-57
2022/02/23 07:09:17;;;;;;;33.67;21.03;;;;;;;;;;4446735;32;20352;-57
2022/02/23 07:11:43;;;;;;;23.53;13.60;;;;;;;;;;4445118;32;20340;-58
2022/02/23 07:14:09;;;;;;;22.43;14.00;;;;;;;;;;4446506;32;20756;-58
2022/02/23 07:16:35;;;;;;;32.47;20.90;;;;;;;;;;4445810;32;21048;-57
2022/02/23 07:19:01;;;;;;;32.53;20.43;;;;;;;;;;4446116;32;20598;-58
2022/02/23 07:21:26;;;;;;;24.67;15.77;;;;;;;;;;4430929;32;20249;-58
2022/02/23 07:23:52;;;;;;;23.63;15.77;;;;;;;;;;4433927;32;20315;-61
2022/02/23 07:26:17;;;;;;;22.83;13.13;;;;;;;;;;4445723;32;20390;-58
2022/02/23 07:28:44;;;;;;;22.20;13.70;;;;;;;;;;4444446;32;20405;-58
2022/02/23 07:31:13;;;;;;;18.13;11.73;;;;;;;;;;4445912;32;20641;-57
2022/02/23 07:33:40;;;;;;;14.97;10.03;;;;;;;;;;4445484;32;20224;-57
2022/02/23 07:36:06;;;;;;;19.40;14.03;;;;;;;;;;4445282;32;20636;-57
2022/02/23 07:38:32;;;;;;;18.40;10.40;;;;;;;;;;4446377;32;20386;-58
2022/02/23 07:40:58;;;;;;;19.43;11.90;;;;;;;;;;4446760;32;20295;-59
2022/02/23 07:43:24;;;;;;;23.50;13.30;;;;;;;;;;4446394;32;20247;-57
2022/02/23 07:45:53;;;;;;;19.60;10.87;;;;;;;;;;4445427;32;20271;-57
2022/02/23 07:48:19;;;;;;;17.53;9.87;;;;;;;;;;4445433;32;20279;-58
2022/02/23 07:50:44;;;;;;;10.90;6.67;;;;;;;;;;4446031;32;20786;-57
2022/02/23 07:53:10;;;;;;;12.10;7.23;;;;;;;;;;4447034;32;20296;-57
2022/02/23 07:55:37;;;;;;;11.73;8.73;;;;;;;;;;4445227;32;20364;-57
2022/02/23 07:58:04;;;;;;;11.30;8.27;;;;;;;;;;4447367;32;20243;-56
2022/02/23 08:00:30;;;;;;;11.73;8.37;;;;;;;;;;4446972;32;20598;-58
2022/02/23 08:02:56;;;;;;;6.80;5.73;;;;;;;;;;4446935;32;20222;-57
2022/02/23 08:05:22;;;;;;;12.90;7.87;;;;;;;;;;4449661;32;20303;-57
2022/02/23 08:07:47;;;;;;;11.77;9.07;;;;;;;;;;4448434;32;20247;-57
2022/02/23 08:10:13;;;;;;;11.07;6.00;;;;;;;;;;4448901;32;20763;-56
2022/02/23 08:12:39;;;;;;;8.43;5.40;;;;;;;;;;4447941;32;20221;-57
2022/02/23 08:20:36;;;;;;;10.40;5.27;;;;;;;;;;4439219;32;20244;-57
2022/02/23 08:23:01;;;;;;;13.97;4.43;;;;;;;;;;4433943;32;20272;-58
2022/02/23 08:25:27;;;;;;;9.10;6.97;;;;;;;;;;4443080;32;20237;-56
2022/02/23 08:27:53;;;;;;;11.40;8.53;;;;;;;;;;4433678;32;20229;-57
2022/02/23 08:30:18;;;;;;;10.70;7.07;;;;;;;;;;4433473;32;20255;-58
2022/02/23 08:32:45;;;;;;;10.40;6.77;;;;;;;;;;4433377;32;20275;-58
2022/02/23 08:35:11;;;;;;;11.93;7.57;;;;;;;;;;4433534;32;20357;-57
2022/02/23 08:37:36;;;;;;;19.33;10.40;;;;;;;;;;4432148;32;20295;-58
2022/02/23 08:40:02;;;;;;;16.33;10.07;;;;;;;;;;4432868;32;20634;-59
2022/02/23 08:42:28;;;;;;;11.17;7.93;;;;;;;;;;4432368;32;20599;-57
2022/02/23 08:44:53;;;;;;;11.47;7.77;;;;;;;;;;4433210;32;20225;-58
2022/02/23 08:47:19;;;;;;;12.00;7.87;;;;;;;;;;4433224;32;20182;-58
2022/02/23 08:49:45;;;;;;;12.87;7.07;;;;;;;;;;4433072;32;20261;-57
2022/02/23 08:52:10;;;;;;;12.10;7.03;;;;;;;;;;4447618;32;20641;-58
2022/02/23 08:54:37;;;;;;;14.10;8.70;;;;;;;;;;4448779;32;20305;-58
2022/02/23 08:57:03;;;;;;;10.03;7.17;;;;;;;;;;4448967;32;20222;-58
2022/02/23 08:59:28;;;;;;;7.90;5.50;;;;;;;;;;4447478;32;20331;-58
2022/02/23 09:01:54;;;;;;;10.40;7.23;;;;;;;;;;4448634;32;20268;-58
2022/02/23 09:04:19;;;;;;;11.03;5.73;;;;;;;;;;4448799;32;20263;-57
2022/02/23 09:06:47;;;;;;;7.53;4.50;;;;;;;;;;4448709;32;20515;-58
2022/02/23 09:09:13;;;;;;;7.53;6.00;;;;;;;;;;4448448;32;20327;-58
2022/02/23 09:11:39;;;;;;;10.80;5.57;;;;;;;;;;4448599;32;20228;-58
2022/02/23 09:14:05;;;;;;;11.53;5.90;;;;;;;;;;4448623;32;20283;-59
2022/02/23 09:16:32;;;;;;;20.03;9.83;;;;;;;;;;4447927;32;20390;-58
2022/02/23 09:18:57;;;;;;;27.93;14.37;;;;;;;;;;4448629;32;20361;-57
2022/02/23 09:21:24;;;;;;;18.17;9.00;;;;;;;;;;4433505;32;20237;-57
2022/02/23 09:23:49;;;;;;;17.47;10.50;;;;;;;;;;4435772;32;20299;-57
2022/02/23 09:26:15;;;;;;;18.80;11.10;;;;;;;;;;4448243;32;20231;-57
2022/02/23 09:28:41;;;;;;;18.83;10.17;;;;;;;;;;4448391;32;20292;-58
2022/02/23 09:31:08;;;;;;;11.47;6.80;;;;;;;;;;4447709;32;20257;-57
2022/02/23 09:33:34;;;;;;;13.73;6.70;;;;;;;;;;4448014;32;20583;-57
2022/02/23 09:36:02;;;;;;;19.77;9.13;;;;;;;;;;4448289;32;20244;-57
2022/02/23 09:38:29;;;;;;;8.90;6.10;;;;;;;;;;4447760;32;20228;-57
2022/02/23 09:40:58;;;;;;;11.13;6.37;;;;;;;;;;4448121;32;20229;-57
2022/02/23 09:43:24;;;;;;;6.53;5.10;;;;;;;;;;4447958;32;20216;-56
2022/02/23 09:45:53;;;;;;;8.63;5.63;;;;;;;;;;4448231;32;20259;-56
2022/02/23 09:48:23;;;;;;;16.97;7.17;;;;;;;;;;4446345;32;20279;-56
2022/02/23 09:50:50;;;;;;;12.03;6.70;;;;;;;;;;4448547;32;20688;-56
2022/02/23 09:53:16;;;;;;;6.50;5.13;;;;;;;;;;4447709;32;20605;-56
2022/02/23 09:55:42;;;;;;;7.13;5.60;;;;;;;;;;4448288;32;20266;-57
2022/02/23 09:58:07;;;;;;;14.20;9.33;;;;;;;;;;4448291;32;20628;-58
2022/02/23 10:00:33;;;;;;;9.97;5.97;;;;;;;;;;4448172;32;20660;-57
2022/02/23 10:02:59;;;;;;;8.97;4.93;;;;;;;;;;4448059;32;20617;-56
2022/02/23 10:05:25;;;;;;;6.70;4.40;;;;;;;;;;4448068;32;20224;-56
2022/02/23 10:07:51;;;;;;;12.63;5.13;;;;;;;;;;4447866;32;20292;-57
2022/02/23 10:10:43;;;;;;;6.90;4.17;;;;;;;;;;4446464;32;20554;-57
2022/02/23 10:13:10;;;;;;;6.60;4.53;;;;;;;;;;4440782;32;20617;-57
2022/02/23 10:15:44;;;;;;;7.37;3.47;;;;;;;;;;4447292;32;20221;-56
2022/02/23 10:18:12;;;;;;;8.63;5.00;;;;;;;;;;4446042;32;20330;-56
2022/02/23 10:20:39;;;;;;;6.67;4.57;;;;;;;;;;4447652;32;20822;-57
2022/02/23 10:23:15;;;;;;;16.47;7.40;;;;;;;;;;4447455;32;20240;-57
2022/02/23 10:25:43;;;;;;;8.40;4.77;;;;;;;;;;4443455;32;20213;-57
2022/02/23 10:28:14;;;;;;;7.57;5.63;;;;;;;;;;4430600;32;20237;-57
2022/02/23 10:30:47;;;;;;;12.13;6.90;;;;;;;;;;4431856;32;20237;-57
2022/02/23 10:33:15;;;;;;;12.97;7.27;;;;;;;;;;4432163;32;20227;-57
2022/02/23 10:35:49;;;;;;;6.63;4.77;;;;;;;;;;4432197;32;20241;-56
2022/02/23 10:38:24;;;;;;;11.87;5.67;;;;;;;;;;4430646;32;20337;-57
2022/02/23 10:40:50;;;;;;;8.90;5.60;;;;;;;;;;4432159;32;20689;-57
2022/02/23 10:43:28;;;;;;;11.37;5.77;;;;;;;;;;4438685;32;20350;-57
2022/02/23 10:46:26;;;;;;;14.13;5.80;;;;;;;;;;4447387;32;20201;-58
2022/02/23 10:48:59;;;;;;;6.03;4.07;;;;;;;;;;4412911;32;20440;-56
2022/02/23 10:51:30;;;;;;;9.13;5.03;;;;;;;;;;4447442;32;20216;-56
2022/02/23 10:54:22;;;;;;;10.30;5.90;;;;;;;;;;4447317;32;20366;-57
2022/02/23 10:56:48;;;;;;;9.10;6.50;;;;;;;;;;4444813;32;20660;-57
2022/02/23 10:59:17;;;;;;;16.60;9.70;;;;;;;;;;4447041;32;20318;-57
2022/02/23 11:01:44;;;;;;;9.83;6.07;;;;;;;;;;4447196;32;20223;-57
2022/02/23 11:04:10;;;;;;;9.97;4.47;;;;;;;;;;4447169;32;20279;-57
2022/02/23 11:06:37;;;;;;;8.10;6.37;;;;;;;;;;4447453;32;20307;-58
2022/02/23 11:09:04;;;;;;;9.10;5.70;;;;;;;;;;4447387;32;20258;-56
2022/02/23 11:11:30;;;;;;;15.50;8.33;;;;;;;;;;4447326;32;20247;-56
2022/02/23 11:13:58;;;;;;;8.90;3.93;;;;;;;;;;4446965;32;20291;-59
2022/02/23 11:16:26;;;;;;;5.73;3.83;;;;;;;;;;4445953;32;20268;-57
2022/02/23 11:18:56;;;;;;;4.70;3.13;;;;;;;;;;4447378;32;20293;-60
2022/02/23 11:21:24;;;;;;;6.73;4.67;;;;;;;;;;4446084;32;20307;-57
2022/02/23 11:24:00;;;;;;;8.83;4.70;;;;;;;;;;4445243;32;20680;-57
2022/02/23 11:26:30;;;;;;;9.00;5.13;;;;;;;;;;4447406;32;20220;-57
2022/02/23 11:29:09;;;;;;;8.27;4.77;;;;;;;;;;4447109;32;20217;-57
2022/02/23 11:31:37;;;;;;;7.97;5.33;;;;;;;;;;4447091;32;20538;-59
2022/02/23 11:34:03;;;;;;;11.67;5.93;;;;;;;;;;4446862;32;20214;-58
2022/02/23 11:36:42;;;;;;;4.73;3.50;;;;;;;;;;4445913;32;20279;-57
2022/02/23 11:39:23;;;;;;;66.80;25.47;;;;;;;;;;4446376;32;20252;-58
2022/02/23 11:41:55;;;;;;;11.10;5.97;;;;;;;;;;4444299;32;20180;-57
2022/02/23 11:44:26;;;;;;;6.13;3.63;;;;;;;;;;4449683;32;20252;-57
2022/02/23 11:47:16;;;;;;;7.33;3.90;;;;;;;;;;4450063;32;20295;-57
2022/02/23 11:50:28;;;;;;;30.53;10.50;;;;;;;;;;4450071;32;20724;-57
2022/02/23 11:53:12;;;;;;;10.00;5.43;;;;;;;;;;4448748;32;20209;-57
2022/02/23 11:59:00;;;;;;;35.60;15.37;;;;;;;;;;4449393;32;20257;-57
2022/02/23 12:01:26;;;;;;;19.97;9.93;;;;;;;;;;4449476;32;20303;-58
2022/02/23 12:04:13;;;;;;;15.77;8.33;;;;;;;;;;4449616;32;20734;-57
2022/02/23 12:07:10;;;;;;;12.57;7.70;;;;;;;;;;4449890;32;20337;-58
2022/02/23 12:09:49;;;;;;;12.40;6.63;;;;;;;;;;4448087;32;20428;-57
2022/02/23 12:12:32;;;;;;;22.73;11.77;;;;;;;;;;4449422;32;20343;-57
2022/02/23 12:14:59;;;;;;;10.50;6.63;;;;;;;;;;4449325;32;20295;-57
2022/02/23 12:17:43;;;;;;;15.27;7.20;;;;;;;;;;4449376;32;20235;-57
2022/02/23 12:20:29;;;;;;;17.93;8.07;;;;;;;;;;4442358;32;20500;-57
2022/02/23 12:23:24;;;;;;;29.33;12.27;;;;;;;;;;4422384;32;20264;-56
2022/02/23 12:25:52;;;;;;;38.13;15.17;;;;;;;;;;4449266;32;20242;-57
2022/02/23 12:28:20;;;;;;;8.27;5.43;;;;;;;;;;4449365;32;20589;-57
2022/02/23 12:31:00;;;;;;;22.17;10.43;;;;;;;;;;4447842;32;20243;-57
2022/02/23 12:33:25;;;;;;;9.83;5.70;;;;;;;;;;4448137;32;20285;-57
2022/02/23 12:35:53;;;;;;;17.37;8.87;;;;;;;;;;4447627;32;20386;-57
2022/02/23 12:38:25;;;;;;;8.50;6.00;;;;;;;;;;4448983;32;20188;-57
2022/02/23 12:40:55;;;;;;;22.77;12.67;;;;;;;;;;4449476;32;20571;-57
2022/02/23 12:43:21;;;;;;;15.30;8.40;;;;;;;;;;4449120;32;20201;-57
2022/02/23 12:45:50;;;;;;;8.70;6.13;;;;;;;;;;4447894;32;20629;-56
2022/02/23 12:48:15;;;;;;;14.07;6.47;;;;;;;;;;4449014;32;20220;-57
2022/02/23 12:50:42;;;;;;;16.60;7.53;;;;;;;;;;4447212;32;20406;-57
2022/02/23 12:53:08;;;;;;;11.87;7.00;;;;;;;;;;4447405;32;20350;-56
2022/02/23 12:55:34;;;;;;;12.10;7.07;;;;;;;;;;4448778;32;20495;-57
2022/02/23 12:57:59;;;;;;;13.40;7.63;;;;;;;;;;4449243;32;20648;-57
2022/02/23 13:00:28;;;;;;;20.70;11.30;;;;;;;;;;4448577;32;20675;-57
2022/02/23 13:02:54;;;;;;;15.07;7.73;;;;;;;;;;4448804;32;20235;-56
2022/02/23 13:05:21;;;;;;;12.37;8.67;;;;;;;;;;4447590;32;20629;-57
2022/02/23 13:07:47;;;;;;;11.83;6.20;;;;;;;;;;4448870;32;20220;-58
2022/02/23 13:10:14;;;;;;;11.87;5.10;;;;;;;;;;4448623;32;20733;-57
2022/02/23 13:12:44;;;;;;;7.97;4.30;;;;;;;;;;4448519;32;20269;-57
2022/02/23 13:15:09;;;;;;;13.13;8.27;;;;;;;;;;4447172;32;20312;-57
2022/02/23 13:17:35;;;;;;;23.57;12.97;;;;;;;;;;4448497;32;20370;-57
2022/02/23 13:20:00;;;;;;;17.73;9.80;;;;;;;;;;4442270;32;20318;-58
2022/02/23 13:22:33;;;;;;;9.40;5.73;;;;;;;;;;4433140;32;20504;-58
2022/02/23 13:24:59;;;;;;;8.47;3.43;;;;;;;;;;4443043;32;20236;-58
2022/02/23 13:27:28;;;;;;;11.30;7.40;;;;;;;;;;4448613;32;20204;-57
2022/02/23 13:30:01;;;;;;;11.60;6.60;;;;;;;;;;4448193;32;20247;-56
2022/02/23 13:32:32;;;;;;;11.67;6.43;;;;;;;;;;4447841;32;20519;-56
2022/02/23 13:34:59;;;;;;;31.63;13.63;;;;;;;;;;4447234;32;20339;-57
2022/02/23 13:37:26;;;;;;;31.70;13.27;;;;;;;;;;4448044;32;20400;-57
2022/02/23 13:40:04;;;;;;;25.40;12.00;;;;;;;;;;4448010;32;20264;-56
2022/02/23 13:42:32;;;;;;;16.57;9.10;;;;;;;;;;4448110;32;20605;-56
2022/02/23 13:45:08;;;;;;;13.63;7.57;;;;;;;;;;4447535;32;20299;-57
2022/02/23 13:47:35;;;;;;;21.40;8.40;;;;;;;;;;4446643;32;20242;-57
2022/02/23 13:50:03;;;;;;;17.77;8.33;;;;;;;;;;4448321;32;20239;-56
2022/02/23 13:52:33;;;;;;;20.87;8.80;;;;;;;;;;4446751;32;20292;-56
2022/02/23 13:55:12;;;;;;;13.40;6.60;;;;;;;;;;4433957;32;20243;-57
2022/02/23 13:57:50;;;;;;;18.33;7.30;;;;;;;;;;4447903;32;20234;-56
2022/02/23 14:00:29;;;;;;;19.20;8.23;;;;;;;;;;4447773;32;20279;-56
2022/02/23 14:03:06;;;;;;;18.63;10.47;;;;;;;;;;4447300;32;20205;-56
2022/02/23 14:05:33;;;;;;;13.13;5.43;;;;;;;;;;4448049;32;20806;-57
2022/02/23 14:08:01;;;;;;;14.57;7.03;;;;;;;;;;4448014;32;20615;-56
2022/02/23 14:10:35;;;;;;;35.07;15.67;;;;;;;;;;4446511;32;20650;-57
2022/02/23 14:13:09;;;;;;;20.30;7.87;;;;;;;;;;4447606;32;20303;-57
2022/02/23 14:15:46;;;;;;;22.13;9.03;;;;;;;;;;4446550;32;20228;-57
2022/02/23 14:18:28;;;;;;;21.67;11.03;;;;;;;;;;4447514;32;20282;-56
2022/02/23 14:20:58;;;;;;;22.43;10.73;;;;;;;;;;4446726;32;20228;-57
2022/02/23 14:23:27;;;;;;;26.90;14.03;;;;;;;;;;4447472;32;20269;-57
2022/02/23 14:25:54;;;;;;;12.97;7.20;;;;;;;;;;4432447;32;20321;-57
2022/02/23 14:28:26;;;;;;;16.13;6.87;;;;;;;;;;4439077;32;20204;-56
2022/02/23 14:30:52;;;;;;;23.30;10.17;;;;;;;;;;4447317;32;20297;-56
2022/02/23 14:33:27;;;;;;;16.30;7.73;;;;;;;;;;4447243;32;20754;-56
2022/02/23 14:35:52;;;;;;;22.30;9.07;;;;;;;;;;4447876;32;20588;-56
2022/02/23 14:38:18;;;;;;;23.73;13.20;;;;;;;;;;4445821;32;20300;-57